sensor_id;sensor_type;location;lat;lon;timestamp;temperature;humidity
8002;DHT22;4046;48.774;8.732;2023-04-15T00:00:43;20.40;77.20
8002;DHT22;4046;48.774;8.732;2023-04-15T00:03:09;20.40;77.10
8002;DHT22;4046;48.774;8.732;2023-04-15T00:05:35;20.40;77.20
8002;DHT22;4046;48.774;8.732;2023-04-15T00:08:02;20.40;77.20
8002;DHT22;4046;48.774;8.732;2023-04-15T00:10:28;20.30;77.00
8002;DHT22;4046;48.774;8.732;2023-04-15T00:12:54;20.30;77.00
8002;DHT22;4046;48.774;8.732;2023-04-15T00:15:21;20.30;77.00
8002;DHT22;4046;48.774;8.732;2023-04-15T00:17:49;20.30;77.00
8002;DHT22;4046;48.774;8.732;2023-04-15T00:20:16;20.30;76.90
8002;DHT22;4046;48.774;8.732;2023-04-15T00:22:43;20.30;77.00
8002;DHT22;4046;48.774;8.732;2023-04-15T00:25:09;20.30;76.90
8002;DHT22;4046;48.774;8.732;2023-04-15T00:27:35;20.30;76.90
8002;DHT22;4046;48.774;8.732;2023-04-15T00:30:01;20.30;76.90
8002;DHT22;4046;48.774;8.732;2023-04-15T00:32:29;20.30;76.90
8002;DHT22;4046;48.774;8.732;2023-04-15T00:34:56;20.30;76.80
8002;DHT22;4046;48.774;8.732;2023-04-15T00:37:22;20.30;76.90
8002;DHT22;4046;48.774;8.732;2023-04-15T00:39:48;20.30;76.80
8002;DHT22;4046;48.774;8.732;2023-04-15T00:42:15;20.30;76.80
8002;DHT22;4046;48.774;8.732;2023-04-15T00:44:42;20.30;76.80
8002;DHT22;4046;48.774;8.732;2023-04-15T00:47:08;20.30;76.80
8002;DHT22;4046;48.774;8.732;2023-04-15T00:49:36;20.30;76.80
8002;DHT22;4046;48.774;8.732;2023-04-15T00:52:02;20.30;76.80
8002;DHT22;4046;48.774;8.732;2023-04-15T00:54:28;20.30;76.80
8002;DHT22;4046;48.774;8.732;2023-04-15T00:56:54;20.30;76.80
8002;DHT22;4046;48.774;8.732;2023-04-15T00:59:21;20.30;76.80
8002;DHT22;4046;48.774;8.732;2023-04-15T01:01:47;20.30;76.70
8002;DHT22;4046;48.774;8.732;2023-04-15T01:04:15;20.30;76.70
8002;DHT22;4046;48.774;8.732;2023-04-15T01:06:41;20.30;76.70
8002;DHT22;4046;48.774;8.732;2023-04-15T01:09:07;20.30;76.60
8002;DHT22;4046;48.774;8.732;2023-04-15T01:11:34;20.30;76.70
8002;DHT22;4046;48.774;8.732;2023-04-15T01:14:00;20.30;76.60
8002;DHT22;4046;48.774;8.732;2023-04-15T01:16:27;20.30;76.60
8002;DHT22;4046;48.774;8.732;2023-04-15T01:18:54;20.30;76.60
8002;DHT22;4046;48.774;8.732;2023-04-15T01:21:21;20.30;76.60
8002;DHT22;4046;48.774;8.732;2023-04-15T01:23:48;20.30;76.60
8002;DHT22;4046;48.774;8.732;2023-04-15T01:26:16;20.30;76.50
8002;DHT22;4046;48.774;8.732;2023-04-15T01:28:42;20.30;76.60
8002;DHT22;4046;48.774;8.732;2023-04-15T01:31:12;20.30;76.50
8002;DHT22;4046;48.774;8.732;2023-04-15T01:33:40;20.30;76.50
8002;DHT22;4046;48.774;8.732;2023-04-15T01:36:08;20.30;76.50
8002;DHT22;4046;48.774;8.732;2023-04-15T01:38:36;20.30;76.50
8002;DHT22;4046;48.774;8.732;2023-04-15T01:41:02;20.30;76.50
8002;DHT22;4046;48.774;8.732;2023-04-15T01:43:29;20.30;76.50
8002;DHT22;4046;48.774;8.732;2023-04-15T01:45:56;20.30;76.50
8002;DHT22;4046;48.774;8.732;2023-04-15T01:48:22;20.30;76.50
8002;DHT22;4046;48.774;8.732;2023-04-15T01:50:48;20.30;76.50
8002;DHT22;4046;48.774;8.732;2023-04-15T01:53:14;20.30;76.50
8002;DHT22;4046;48.774;8.732;2023-04-15T01:55:41;20.30;76.50
8002;DHT22;4046;48.774;8.732;2023-04-15T01:58:08;20.30;76.50
8002;DHT22;4046;48.774;8.732;2023-04-15T02:00:34;20.30;76.40
8002;DHT22;4046;48.774;8.732;2023-04-15T02:03:00;20.30;76.40
8002;DHT22;4046;48.774;8.732;2023-04-15T02:05:29;20.30;76.40
8002;DHT22;4046;48.774;8.732;2023-04-15T02:07:56;20.30;76.40
8002;DHT22;4046;48.774;8.732;2023-04-15T02:10:22;20.30;76.40
8002;DHT22;4046;48.774;8.732;2023-04-15T02:12:48;20.20;76.30
8002;DHT22;4046;48.774;8.732;2023-04-15T02:15:15;20.30;76.30
8002;DHT22;4046;48.774;8.732;2023-04-15T02:17:41;20.30;76.30
8002;DHT22;4046;48.774;8.732;2023-04-15T02:20:11;20.20;76.30
8002;DHT22;4046;48.774;8.732;2023-04-15T02:22:37;20.20;76.20
8002;DHT22;4046;48.774;8.732;2023-04-15T02:25:03;20.30;76.30
8002;DHT22;4046;48.774;8.732;2023-04-15T02:27:30;20.30;76.30
8002;DHT22;4046;48.774;8.732;2023-04-15T02:29:57;20.30;76.20
8002;DHT22;4046;48.774;8.732;2023-04-15T02:32:23;20.30;76.20
8002;DHT22;4046;48.774;8.732;2023-04-15T02:34:50;20.30;76.20
8002;DHT22;4046;48.774;8.732;2023-04-15T02:37:16;20.30;76.20
8002;DHT22;4046;48.774;8.732;2023-04-15T02:39:44;20.30;76.10
8002;DHT22;4046;48.774;8.732;2023-04-15T02:42:10;20.30;76.10
8002;DHT22;4046;48.774;8.732;2023-04-15T02:44:36;20.30;76.10
8002;DHT22;4046;48.774;8.732;2023-04-15T02:47:03;20.20;76.00
8002;DHT22;4046;48.774;8.732;2023-04-15T02:49:31;20.30;76.10
8002;DHT22;4046;48.774;8.732;2023-04-15T02:51:58;20.30;76.10
8002;DHT22;4046;48.774;8.732;2023-04-15T02:54:25;20.30;76.00
8002;DHT22;4046;48.774;8.732;2023-04-15T02:56:53;20.20;75.90
8002;DHT22;4046;48.774;8.732;2023-04-15T02:59:23;20.30;76.80
8002;DHT22;4046;48.774;8.732;2023-04-15T03:01:49;20.30;76.00
8002;DHT22;4046;48.774;8.732;2023-04-15T03:04:15;20.20;75.90
8002;DHT22;4046;48.774;8.732;2023-04-15T03:06:42;20.30;76.10
8002;DHT22;4046;48.774;8.732;2023-04-15T03:09:08;20.20;75.90
8002;DHT22;4046;48.774;8.732;2023-04-15T03:11:34;20.20;75.80
8002;DHT22;4046;48.774;8.732;2023-04-15T03:14:05;20.20;76.60
8002;DHT22;4046;48.774;8.732;2023-04-15T03:16:31;20.20;75.80
8002;DHT22;4046;48.774;8.732;2023-04-15T03:18:58;20.20;76.00
8002;DHT22;4046;48.774;8.732;2023-04-15T03:21:24;20.20;75.90
8002;DHT22;4046;48.774;8.732;2023-04-15T03:23:51;20.20;75.80
8002;DHT22;4046;48.774;8.732;2023-04-15T03:26:30;20.20;75.80
8002;DHT22;4046;48.774;8.732;2023-04-15T03:28:57;20.20;75.80
8002;DHT22;4046;48.774;8.732;2023-04-15T03:31:23;20.20;75.70
8002;DHT22;4046;48.774;8.732;2023-04-15T03:33:50;20.20;75.70
8002;DHT22;4046;48.774;8.732;2023-04-15T03:36:16;20.20;75.70
8002;DHT22;4046;48.774;8.732;2023-04-15T03:38:42;20.20;75.70
8002;DHT22;4046;48.774;8.732;2023-04-15T03:41:08;20.20;75.70
8002;DHT22;4046;48.774;8.732;2023-04-15T03:43:35;20.20;75.70
8002;DHT22;4046;48.774;8.732;2023-04-15T03:46:01;20.20;75.70
8002;DHT22;4046;48.774;8.732;2023-04-15T03:48:28;20.20;75.70
8002;DHT22;4046;48.774;8.732;2023-04-15T03:50:54;20.20;75.70
8002;DHT22;4046;48.774;8.732;2023-04-15T03:53:20;20.20;75.60
8002;DHT22;4046;48.774;8.732;2023-04-15T03:55:47;20.20;75.60
8002;DHT22;4046;48.774;8.732;2023-04-15T03:58:13;20.20;75.60
8002;DHT22;4046;48.774;8.732;2023-04-15T04:00:39;20.20;75.60
8002;DHT22;4046;48.774;8.732;2023-04-15T04:03:06;20.20;75.60
8002;DHT22;4046;48.774;8.732;2023-04-15T04:05:33;20.20;75.60
8002;DHT22;4046;48.774;8.732;2023-04-15T04:08:02;20.20;75.60
8002;DHT22;4046;48.774;8.732;2023-04-15T04:10:28;20.20;75.60
8002;DHT22;4046;48.774;8.732;2023-04-15T04:12:54;20.20;76.30
8002;DHT22;4046;48.774;8.732;2023-04-15T04:15:20;20.20;75.50
8002;DHT22;4046;48.774;8.732;2023-04-15T04:17:46;20.20;75.50
8002;DHT22;4046;48.774;8.732;2023-04-15T04:20:13;20.20;75.40
8002;DHT22;4046;48.774;8.732;2023-04-15T04:22:39;20.20;75.50
8002;DHT22;4046;48.774;8.732;2023-04-15T04:25:08;20.20;75.40
8002;DHT22;4046;48.774;8.732;2023-04-15T04:27:37;20.20;75.40
8002;DHT22;4046;48.774;8.732;2023-04-15T04:30:04;20.20;75.40
8002;DHT22;4046;48.774;8.732;2023-04-15T04:32:31;20.20;75.40
8002;DHT22;4046;48.774;8.732;2023-04-15T04:34:58;20.20;75.30
8002;DHT22;4046;48.774;8.732;2023-04-15T04:37:24;20.20;75.30
8002;DHT22;4046;48.774;8.732;2023-04-15T04:39:50;20.20;75.30
8002;DHT22;4046;48.774;8.732;2023-04-15T04:42:16;20.20;75.30
8002;DHT22;4046;48.774;8.732;2023-04-15T04:44:43;20.20;75.30
8002;DHT22;4046;48.774;8.732;2023-04-15T04:47:09;20.20;75.30
8002;DHT22;4046;48.774;8.732;2023-04-15T04:49:35;20.20;75.30
8002;DHT22;4046;48.774;8.732;2023-04-15T04:52:01;20.20;75.30
8002;DHT22;4046;48.774;8.732;2023-04-15T04:54:28;20.20;75.30
8002;DHT22;4046;48.774;8.732;2023-04-15T04:56:55;20.20;75.30
8002;DHT22;4046;48.774;8.732;2023-04-15T04:59:23;20.20;75.20
8002;DHT22;4046;48.774;8.732;2023-04-15T05:01:49;20.20;75.20
8002;DHT22;4046;48.774;8.732;2023-04-15T05:04:16;20.20;76.00
8002;DHT22;4046;48.774;8.732;2023-04-15T05:06:42;20.20;75.20
8002;DHT22;4046;48.774;8.732;2023-04-15T05:09:08;20.20;75.20
8002;DHT22;4046;48.774;8.732;2023-04-15T05:11:35;20.20;75.10
8002;DHT22;4046;48.774;8.732;2023-04-15T05:14:01;20.20;75.10
8002;DHT22;4046;48.774;8.732;2023-04-15T05:16:27;20.20;75.10
8002;DHT22;4046;48.774;8.732;2023-04-15T05:18:53;20.20;75.00
8002;DHT22;4046;48.774;8.732;2023-04-15T05:21:20;20.20;75.00
8002;DHT22;4046;48.774;8.732;2023-04-15T05:23:46;20.20;75.00
8002;DHT22;4046;48.774;8.732;2023-04-15T05:26:12;20.20;75.00
8002;DHT22;4046;48.774;8.732;2023-04-15T05:28:38;20.20;75.00
8002;DHT22;4046;48.774;8.732;2023-04-15T05:31:05;20.20;75.00
8002;DHT22;4046;48.774;8.732;2023-04-15T05:33:32;20.20;75.00
8002;DHT22;4046;48.774;8.732;2023-04-15T05:36:05;20.20;75.00
8002;DHT22;4046;48.774;8.732;2023-04-15T05:38:32;20.20;74.90
8002;DHT22;4046;48.774;8.732;2023-04-15T05:40:58;20.20;75.00
8002;DHT22;4046;48.774;8.732;2023-04-15T05:43:24;20.20;74.90
8002;DHT22;4046;48.774;8.732;2023-04-15T05:45:50;20.20;74.90
8002;DHT22;4046;48.774;8.732;2023-04-15T05:48:17;20.20;74.90
8002;DHT22;4046;48.774;8.732;2023-04-15T05:50:43;20.20;74.90
8002;DHT22;4046;48.774;8.732;2023-04-15T05:53:09;20.20;74.80
8002;DHT22;4046;48.774;8.732;2023-04-15T05:55:36;20.20;74.80
8002;DHT22;4046;48.774;8.732;2023-04-15T05:58:02;20.30;74.80
8002;DHT22;4046;48.774;8.732;2023-04-15T06:00:29;20.30;74.80
8002;DHT22;4046;48.774;8.732;2023-04-15T06:02:56;20.30;74.80
8002;DHT22;4046;48.774;8.732;2023-04-15T06:05:24;20.30;74.80
8002;DHT22;4046;48.774;8.732;2023-04-15T06:07:50;20.30;74.80
8002;DHT22;4046;48.774;8.732;2023-04-15T06:10:16;20.30;74.80
8002;DHT22;4046;48.774;8.732;2023-04-15T06:12:42;20.30;74.80
8002;DHT22;4046;48.774;8.732;2023-04-15T06:15:09;20.30;74.80
8002;DHT22;4046;48.774;8.732;2023-04-15T06:17:36;20.30;74.80
8002;DHT22;4046;48.774;8.732;2023-04-15T06:20:02;20.30;74.80
8002;DHT22;4046;48.774;8.732;2023-04-15T06:22:29;20.30;74.70
8002;DHT22;4046;48.774;8.732;2023-04-15T06:24:55;20.30;74.70
8002;DHT22;4046;48.774;8.732;2023-04-15T06:27:21;20.30;74.60
8002;DHT22;4046;48.774;8.732;2023-04-15T06:29:48;20.30;74.60
8002;DHT22;4046;48.774;8.732;2023-04-15T06:32:14;20.30;74.60
8002;DHT22;4046;48.774;8.732;2023-04-15T06:34:40;20.30;74.60
8002;DHT22;4046;48.774;8.732;2023-04-15T06:37:06;20.30;74.50
8002;DHT22;4046;48.774;8.732;2023-04-15T06:39:34;20.30;74.50
8002;DHT22;4046;48.774;8.732;2023-04-15T06:42:01;20.30;74.50
8002;DHT22;4046;48.774;8.732;2023-04-15T06:44:28;20.30;74.50
8002;DHT22;4046;48.774;8.732;2023-04-15T06:46:54;20.30;74.50
8002;DHT22;4046;48.774;8.732;2023-04-15T06:49:21;20.30;74.50
8002;DHT22;4046;48.774;8.732;2023-04-15T06:51:47;20.30;74.50
8002;DHT22;4046;48.774;8.732;2023-04-15T06:54:14;20.30;74.40
8002;DHT22;4046;48.774;8.732;2023-04-15T06:56:41;20.40;74.40
8002;DHT22;4046;48.774;8.732;2023-04-15T06:59:07;20.40;74.30
8002;DHT22;4046;48.774;8.732;2023-04-15T07:01:34;20.40;74.30
8002;DHT22;4046;48.774;8.732;2023-04-15T07:04:00;20.40;74.30
8002;DHT22;4046;48.774;8.732;2023-04-15T07:06:26;20.40;74.30
8002;DHT22;4046;48.774;8.732;2023-04-15T07:08:53;20.40;74.20
8002;DHT22;4046;48.774;8.732;2023-04-15T07:11:20;20.50;74.20
8002;DHT22;4046;48.774;8.732;2023-04-15T07:13:47;20.50;74.20
8002;DHT22;4046;48.774;8.732;2023-04-15T07:16:13;20.60;74.20
8002;DHT22;4046;48.774;8.732;2023-04-15T07:18:39;20.60;74.10
8002;DHT22;4046;48.774;8.732;2023-04-15T07:21:05;20.70;74.10
8002;DHT22;4046;48.774;8.732;2023-04-15T07:23:32;20.70;74.00
8002;DHT22;4046;48.774;8.732;2023-04-15T07:25:58;20.80;74.00
8002;DHT22;4046;48.774;8.732;2023-04-15T07:28:24;20.80;73.80
8002;DHT22;4046;48.774;8.732;2023-04-15T07:30:50;20.80;73.90
8002;DHT22;4046;48.774;8.732;2023-04-15T07:33:17;20.80;73.80
8002;DHT22;4046;48.774;8.732;2023-04-15T07:35:43;20.80;73.80
8002;DHT22;4046;48.774;8.732;2023-04-15T07:38:10;20.90;73.80
8002;DHT22;4046;48.774;8.732;2023-04-15T07:40:38;20.90;73.80
8002;DHT22;4046;48.774;8.732;2023-04-15T07:43:05;20.90;73.80
8002;DHT22;4046;48.774;8.732;2023-04-15T07:45:31;20.90;73.80
8002;DHT22;4046;48.774;8.732;2023-04-15T07:47:57;20.80;73.80
8002;DHT22;4046;48.774;8.732;2023-04-15T07:50:24;20.80;73.70
8002;DHT22;4046;48.774;8.732;2023-04-15T07:52:50;20.80;73.80
8002;DHT22;4046;48.774;8.732;2023-04-15T07:55:17;20.80;73.80
8002;DHT22;4046;48.774;8.732;2023-04-15T07:57:47;20.80;73.90
8002;DHT22;4046;48.774;8.732;2023-04-15T08:00:14;20.80;73.90
8002;DHT22;4046;48.774;8.732;2023-04-15T08:02:42;20.70;73.80
8002;DHT22;4046;48.774;8.732;2023-04-15T08:05:09;20.80;73.90
8002;DHT22;4046;48.774;8.732;2023-04-15T08:07:36;20.80;73.80
8002;DHT22;4046;48.774;8.732;2023-04-15T08:10:03;20.80;73.80
8002;DHT22;4046;48.774;8.732;2023-04-15T08:12:29;20.80;73.70
8002;DHT22;4046;48.774;8.732;2023-04-15T08:14:56;20.90;74.50
8002;DHT22;4046;48.774;8.732;2023-04-15T08:17:23;20.90;73.70
8002;DHT22;4046;48.774;8.732;2023-04-15T08:19:49;20.90;73.60
8002;DHT22;4046;48.774;8.732;2023-04-15T08:22:16;20.90;73.70
8002;DHT22;4046;48.774;8.732;2023-04-15T08:24:42;20.90;73.60
8002;DHT22;4046;48.774;8.732;2023-04-15T08:27:08;21.00;73.70
8002;DHT22;4046;48.774;8.732;2023-04-15T08:29:35;21.00;73.70
8002;DHT22;4046;48.774;8.732;2023-04-15T08:32:01;21.00;73.70
8002;DHT22;4046;48.774;8.732;2023-04-15T08:34:28;21.00;73.70
8002;DHT22;4046;48.774;8.732;2023-04-15T08:36:54;20.90;73.60
8002;DHT22;4046;48.774;8.732;2023-04-15T08:39:21;20.90;74.10
8002;DHT22;4046;48.774;8.732;2023-04-15T08:41:53;20.90;74.00
8002;DHT22;4046;48.774;8.732;2023-04-15T08:44:20;20.90;74.00
8002;DHT22;4046;48.774;8.732;2023-04-15T08:46:49;21.00;74.20
8002;DHT22;4046;48.774;8.732;2023-04-15T08:49:16;21.00;74.20
8002;DHT22;4046;48.774;8.732;2023-04-15T08:51:44;21.00;74.20
8002;DHT22;4046;48.774;8.732;2023-04-15T08:54:11;21.00;74.20
8002;DHT22;4046;48.774;8.732;2023-04-15T08:56:38;21.00;74.40
8002;DHT22;4046;48.774;8.732;2023-04-15T08:59:04;21.10;74.40
8002;DHT22;4046;48.774;8.732;2023-04-15T09:01:31;21.10;74.30
8002;DHT22;4046;48.774;8.732;2023-04-15T09:03:58;21.10;74.20
8002;DHT22;4046;48.774;8.732;2023-04-15T09:06:25;21.10;74.20
8002;DHT22;4046;48.774;8.732;2023-04-15T09:08:51;21.10;74.10
8002;DHT22;4046;48.774;8.732;2023-04-15T09:11:18;21.10;74.10
8002;DHT22;4046;48.774;8.732;2023-04-15T09:13:44;21.00;74.00
8002;DHT22;4046;48.774;8.732;2023-04-15T09:16:12;21.00;74.00
8002;DHT22;4046;48.774;8.732;2023-04-15T09:18:39;21.00;74.00
8002;DHT22;4046;48.774;8.732;2023-04-15T09:21:10;21.10;74.00
8002;DHT22;4046;48.774;8.732;2023-04-15T09:24:00;21.10;74.00
8002;DHT22;4046;48.774;8.732;2023-04-15T09:26:35;21.10;74.00
8002;DHT22;4046;48.774;8.732;2023-04-15T09:29:03;21.10;74.00
8002;DHT22;4046;48.774;8.732;2023-04-15T09:31:30;21.00;73.90
8002;DHT22;4046;48.774;8.732;2023-04-15T09:33:57;21.00;74.00
8002;DHT22;4046;48.774;8.732;2023-04-15T09:36:23;21.00;73.90
8002;DHT22;4046;48.774;8.732;2023-04-15T09:38:57;21.00;74.00
8002;DHT22;4046;48.774;8.732;2023-04-15T09:41:25;21.00;74.10
8002;DHT22;4046;48.774;8.732;2023-04-15T09:43:51;21.00;74.20
8002;DHT22;4046;48.774;8.732;2023-04-15T09:46:18;21.00;74.10
8002;DHT22;4046;48.774;8.732;2023-04-15T09:48:44;21.00;74.10
8002;DHT22;4046;48.774;8.732;2023-04-15T09:51:11;21.10;74.10
8002;DHT22;4046;48.774;8.732;2023-04-15T09:53:37;21.10;74.00
8002;DHT22;4046;48.774;8.732;2023-04-15T09:56:03;21.20;74.00
8002;DHT22;4046;48.774;8.732;2023-04-15T09:58:33;21.20;73.80
8002;DHT22;4046;48.774;8.732;2023-04-15T10:01:02;21.20;73.80
8002;DHT22;4046;48.774;8.732;2023-04-15T10:03:30;21.30;73.90
8002;DHT22;4046;48.774;8.732;2023-04-15T10:05:58;21.30;73.90
8002;DHT22;4046;48.774;8.732;2023-04-15T10:08:30;21.30;73.70
8002;DHT22;4046;48.774;8.732;2023-04-15T10:10:58;21.30;73.80
8002;DHT22;4046;48.774;8.732;2023-04-15T10:13:25;21.20;73.70
8002;DHT22;4046;48.774;8.732;2023-04-15T10:16:04;21.20;73.80
8002;DHT22;4046;48.774;8.732;2023-04-15T10:18:33;21.20;73.80
8002;DHT22;4046;48.774;8.732;2023-04-15T10:21:00;21.10;73.70
8002;DHT22;4046;48.774;8.732;2023-04-15T10:23:27;21.10;73.80
8002;DHT22;4046;48.774;8.732;2023-04-15T10:25:53;21.10;73.80
8002;DHT22;4046;48.774;8.732;2023-04-15T10:28:20;21.10;73.90
8002;DHT22;4046;48.774;8.732;2023-04-15T10:30:50;21.10;73.90
8002;DHT22;4046;48.774;8.732;2023-04-15T10:33:20;21.10;73.90
8002;DHT22;4046;48.774;8.732;2023-04-15T10:35:48;21.00;74.10
8002;DHT22;4046;48.774;8.732;2023-04-15T10:38:36;21.10;74.10
8002;DHT22;4046;48.774;8.732;2023-04-15T10:41:23;21.10;74.10
8002;DHT22;4046;48.774;8.732;2023-04-15T10:43:59;21.10;74.20
8002;DHT22;4046;48.774;8.732;2023-04-15T10:46:43;21.10;74.20
8002;DHT22;4046;48.774;8.732;2023-04-15T10:49:14;21.10;74.20
8002;DHT22;4046;48.774;8.732;2023-04-15T10:51:44;21.10;74.50
8002;DHT22;4046;48.774;8.732;2023-04-15T10:54:31;21.10;74.40
8002;DHT22;4046;48.774;8.732;2023-04-15T10:59:31;21.10;74.60
8002;DHT22;4046;48.774;8.732;2023-04-15T11:02:05;21.10;74.60
8002;DHT22;4046;48.774;8.732;2023-04-15T11:04:54;21.10;74.70
8002;DHT22;4046;48.774;8.732;2023-04-15T11:07:54;21.10;74.70
8002;DHT22;4046;48.774;8.732;2023-04-15T11:12:58;21.00;74.90
8002;DHT22;4046;48.774;8.732;2023-04-15T11:15:42;21.00;74.80
8002;DHT22;4046;48.774;8.732;2023-04-15T11:18:14;21.00;74.90
8002;DHT22;4046;48.774;8.732;2023-04-15T11:20:49;21.00;75.00
8002;DHT22;4046;48.774;8.732;2023-04-15T11:23:26;21.00;75.00
8002;DHT22;4046;48.774;8.732;2023-04-15T11:25:57;21.00;75.70
8002;DHT22;4046;48.774;8.732;2023-04-15T11:28:26;21.00;74.90
8002;DHT22;4046;48.774;8.732;2023-04-15T11:30:53;21.00;75.00
8002;DHT22;4046;48.774;8.732;2023-04-15T11:33:21;21.00;75.00
8002;DHT22;4046;48.774;8.732;2023-04-15T11:35:51;21.00;75.00
8002;DHT22;4046;48.774;8.732;2023-04-15T11:38:19;21.00;75.20
8002;DHT22;4046;48.774;8.732;2023-04-15T11:40:45;21.00;75.10
8002;DHT22;4046;48.774;8.732;2023-04-15T11:43:17;21.10;75.20
8002;DHT22;4046;48.774;8.732;2023-04-15T11:45:59;21.10;75.10
8002;DHT22;4046;48.774;8.732;2023-04-15T11:48:31;21.10;75.10
8002;DHT22;4046;48.774;8.732;2023-04-15T11:51:05;21.00;75.10
8002;DHT22;4046;48.774;8.732;2023-04-15T11:53:37;21.00;75.20
8002;DHT22;4046;48.774;8.732;2023-04-15T11:56:04;21.00;75.20
8002;DHT22;4046;48.774;8.732;2023-04-15T11:58:30;21.00;75.30
8002;DHT22;4046;48.774;8.732;2023-04-15T12:01:00;21.00;75.40
8002;DHT22;4046;48.774;8.732;2023-04-15T12:03:28;21.00;75.40
8002;DHT22;4046;48.774;8.732;2023-04-15T12:08:51;21.00;75.50
8002;DHT22;4046;48.774;8.732;2023-04-15T12:11:27;21.10;75.50
8002;DHT22;4046;48.774;8.732;2023-04-15T12:13:57;21.00;75.40
8002;DHT22;4046;48.774;8.732;2023-04-15T12:16:24;21.00;75.50
8002;DHT22;4046;48.774;8.732;2023-04-15T12:18:57;21.00;75.70
8002;DHT22;4046;48.774;8.732;2023-04-15T12:21:32;21.00;75.60
8002;DHT22;4046;48.774;8.732;2023-04-15T12:24:05;21.00;75.70
8002;DHT22;4046;48.774;8.732;2023-04-15T12:26:48;20.90;75.60
8002;DHT22;4046;48.774;8.732;2023-04-15T12:29:15;20.90;75.70
8002;DHT22;4046;48.774;8.732;2023-04-15T12:31:57;20.90;75.80
8002;DHT22;4046;48.774;8.732;2023-04-15T12:34:27;20.90;75.80
8002;DHT22;4046;48.774;8.732;2023-04-15T12:36:55;20.90;75.70
8002;DHT22;4046;48.774;8.732;2023-04-15T12:39:26;21.00;75.80
8002;DHT22;4046;48.774;8.732;2023-04-15T12:41:53;21.00;75.90
8002;DHT22;4046;48.774;8.732;2023-04-15T12:44:22;21.00;75.60
8002;DHT22;4046;48.774;8.732;2023-04-15T12:46:49;21.00;75.60
8002;DHT22;4046;48.774;8.732;2023-04-15T12:49:16;21.00;75.50
8002;DHT22;4046;48.774;8.732;2023-04-15T12:51:48;21.00;75.50
8002;DHT22;4046;48.774;8.732;2023-04-15T12:54:18;21.00;75.50
8002;DHT22;4046;48.774;8.732;2023-04-15T12:56:45;21.00;75.40
8002;DHT22;4046;48.774;8.732;2023-04-15T12:59:13;21.00;75.30
8002;DHT22;4046;48.774;8.732;2023-04-15T13:01:40;21.00;75.30
8002;DHT22;4046;48.774;8.732;2023-04-15T13:04:06;21.10;75.30
8002;DHT22;4046;48.774;8.732;2023-04-15T13:06:33;21.10;75.30
8002;DHT22;4046;48.774;8.732;2023-04-15T13:08:59;21.10;75.20
8002;DHT22;4046;48.774;8.732;2023-04-15T13:11:27;21.10;75.20
8002;DHT22;4046;48.774;8.732;2023-04-15T13:13:56;21.10;75.10
8002;DHT22;4046;48.774;8.732;2023-04-15T13:16:23;21.10;75.00
8002;DHT22;4046;48.774;8.732;2023-04-15T13:18:49;21.10;75.20
8002;DHT22;4046;48.774;8.732;2023-04-15T13:21:15;20.90;75.20
8002;DHT22;4046;48.774;8.732;2023-04-15T13:23:42;20.90;75.30
8002;DHT22;4046;48.774;8.732;2023-04-15T13:26:09;20.90;75.40
8002;DHT22;4046;48.774;8.732;2023-04-15T13:28:35;20.80;75.40
8002;DHT22;4046;48.774;8.732;2023-04-15T13:31:02;20.80;75.40
8002;DHT22;4046;48.774;8.732;2023-04-15T13:33:28;20.80;75.40
8002;DHT22;4046;48.774;8.732;2023-04-15T13:35:55;20.80;75.40
8002;DHT22;4046;48.774;8.732;2023-04-15T13:38:23;20.80;75.40
8002;DHT22;4046;48.774;8.732;2023-04-15T13:40:49;20.80;75.40
8002;DHT22;4046;48.774;8.732;2023-04-15T13:43:15;20.90;75.40
8002;DHT22;4046;48.774;8.732;2023-04-15T13:45:43;20.90;75.40
8002;DHT22;4046;48.774;8.732;2023-04-15T13:48:09;20.90;75.40
8002;DHT22;4046;48.774;8.732;2023-04-15T13:50:35;20.80;75.30
8002;DHT22;4046;48.774;8.732;2023-04-15T13:53:01;20.80;75.40
8002;DHT22;4046;48.774;8.732;2023-04-15T13:55:28;20.80;75.30
8002;DHT22;4046;48.774;8.732;2023-04-15T13:57:55;20.80;75.40
8002;DHT22;4046;48.774;8.732;2023-04-15T14:00:21;20.80;75.40
8002;DHT22;4046;48.774;8.732;2023-04-15T14:02:48;20.80;75.40
8002;DHT22;4046;48.774;8.732;2023-04-15T14:05:14;20.80;75.50
8002;DHT22;4046;48.774;8.732;2023-04-15T14:07:40;20.80;75.40
8002;DHT22;4046;48.774;8.732;2023-04-15T14:10:07;20.80;75.50
8002;DHT22;4046;48.774;8.732;2023-04-15T14:12:33;20.80;75.40
8002;DHT22;4046;48.774;8.732;2023-04-15T14:14:59;20.80;75.40
8002;DHT22;4046;48.774;8.732;2023-04-15T14:17:27;20.80;75.40
8002;DHT22;4046;48.774;8.732;2023-04-15T14:19:53;20.80;75.40
8002;DHT22;4046;48.774;8.732;2023-04-15T14:22:19;20.70;75.40
8002;DHT22;4046;48.774;8.732;2023-04-15T14:24:46;20.70;75.40
8002;DHT22;4046;48.774;8.732;2023-04-15T14:27:14;20.70;75.40
8002;DHT22;4046;48.774;8.732;2023-04-15T14:29:41;20.80;75.50
8002;DHT22;4046;48.774;8.732;2023-04-15T14:32:07;20.80;75.50
8002;DHT22;4046;48.774;8.732;2023-04-15T14:34:34;20.70;75.50
8002;DHT22;4046;48.774;8.732;2023-04-15T14:37:01;20.70;75.40
8002;DHT22;4046;48.774;8.732;2023-04-15T14:39:28;20.70;75.50
8002;DHT22;4046;48.774;8.732;2023-04-15T14:41:54;20.70;75.40
8002;DHT22;4046;48.774;8.732;2023-04-15T14:44:21;20.70;75.50
8002;DHT22;4046;48.774;8.732;2023-04-15T14:46:47;20.70;75.50
8002;DHT22;4046;48.774;8.732;2023-04-15T14:49:16;20.70;75.50
8002;DHT22;4046;48.774;8.732;2023-04-15T14:51:43;20.70;75.60
8002;DHT22;4046;48.774;8.732;2023-04-15T14:54:09;20.70;75.60
8002;DHT22;4046;48.774;8.732;2023-04-15T14:56:35;20.70;75.60
8002;DHT22;4046;48.774;8.732;2023-04-15T14:59:01;20.70;75.60
8002;DHT22;4046;48.774;8.732;2023-04-15T15:01:28;20.70;75.70
8002;DHT22;4046;48.774;8.732;2023-04-15T15:03:55;20.70;75.70
8002;DHT22;4046;48.774;8.732;2023-04-15T15:06:22;20.60;75.60
8002;DHT22;4046;48.774;8.732;2023-04-15T15:08:48;20.70;75.70
8002;DHT22;4046;48.774;8.732;2023-04-15T15:11:15;20.70;76.40
8002;DHT22;4046;48.774;8.732;2023-04-15T15:13:42;20.70;75.60
8002;DHT22;4046;48.774;8.732;2023-04-15T15:16:08;20.70;75.70
8002;DHT22;4046;48.774;8.732;2023-04-15T15:18:34;20.70;75.60
8002;DHT22;4046;48.774;8.732;2023-04-15T15:21:01;20.70;75.60
8002;DHT22;4046;48.774;8.732;2023-04-15T15:23:27;20.70;75.60
8002;DHT22;4046;48.774;8.732;2023-04-15T15:25:53;20.70;75.60
8002;DHT22;4046;48.774;8.732;2023-04-15T15:28:19;20.70;75.60
8002;DHT22;4046;48.774;8.732;2023-04-15T15:30:55;20.70;75.70
8002;DHT22;4046;48.774;8.732;2023-04-15T15:33:22;20.60;75.60
8002;DHT22;4046;48.774;8.732;2023-04-15T15:35:49;20.60;75.70
8002;DHT22;4046;48.774;8.732;2023-04-15T15:38:15;20.60;75.70
8002;DHT22;4046;48.774;8.732;2023-04-15T15:40:42;20.60;75.80
8002;DHT22;4046;48.774;8.732;2023-04-15T15:43:08;20.60;75.90
8002;DHT22;4046;48.774;8.732;2023-04-15T15:45:34;20.60;75.90
8002;DHT22;4046;48.774;8.732;2023-04-15T15:48:01;20.60;76.00
8002;DHT22;4046;48.774;8.732;2023-04-15T15:50:27;20.50;75.80
8002;DHT22;4046;48.774;8.732;2023-04-15T15:52:53;20.50;75.80
8002;DHT22;4046;48.774;8.732;2023-04-15T15:55:20;20.50;75.80
8002;DHT22;4046;48.774;8.732;2023-04-15T15:57:46;20.50;75.90
8002;DHT22;4046;48.774;8.732;2023-04-15T16:00:13;20.50;76.00
8002;DHT22;4046;48.774;8.732;2023-04-15T16:02:39;20.50;76.00
8002;DHT22;4046;48.774;8.732;2023-04-15T16:05:06;20.50;75.90
8002;DHT22;4046;48.774;8.732;2023-04-15T16:07:32;20.50;75.90
8002;DHT22;4046;48.774;8.732;2023-04-15T16:09:58;20.60;76.00
8002;DHT22;4046;48.774;8.732;2023-04-15T16:12:24;20.60;76.00